Mount Darwin, Zimbabwe
Current Conditions -  °F | °C
As of 8:00 PM on Thursday 30 Oct 2014 (Local Time) from FQCH Reporting Station
Clear Clear  
Wind Chill: 77°   Ceiling: Unl
Heat Index: 78°   Visibility: 6mi
Dew Point: 54°   Wind: 13mph
Humidity: 44%   Direction: 110°ESE
Pressure: 30"   Gusts: NA
Location:  16.77°S, 31.58°E
Report Text: FQCH 301800Z 11011KT CAVOK 25/12 Q1016
Loading
Personal Weather Stations






























Interactive Weather Map
Tropical Storm Tracking
New forecast layout! Learn more

10-Day Weather Forecast

Advertisements
Track Severe Weather on mobile